sensor_id;sensor_type;location;lat;lon;timestamp;temperature;humidity
63960;DHT22;50136;51.374;0.096;2023-03-05T00:00:37;5.80;99.90
63960;DHT22;50136;51.374;0.096;2023-03-05T00:10:39;5.70;99.90
63960;DHT22;50136;51.374;0.096;2023-03-05T00:20:43;5.80;99.90
63960;DHT22;50136;51.374;0.096;2023-03-05T00:30:46;5.80;99.90
63960;DHT22;50136;51.374;0.096;2023-03-05T00:40:50;5.80;99.90
63960;DHT22;50136;51.374;0.096;2023-03-05T00:50:51;5.90;99.90
63960;DHT22;50136;51.374;0.096;2023-03-05T01:00:57;6.00;99.90
63960;DHT22;50136;51.374;0.096;2023-03-05T01:11:00;5.80;99.90
63960;DHT22;50136;51.374;0.096;2023-03-05T01:21:04;5.90;99.90
63960;DHT22;50136;51.374;0.096;2023-03-05T01:31:07;6.00;99.90
63960;DHT22;50136;51.374;0.096;2023-03-05T01:41:11;5.90;99.90
63960;DHT22;50136;51.374;0.096;2023-03-05T01:51:14;5.90;99.90
63960;DHT22;50136;51.374;0.096;2023-03-05T02:01:18;6.00;99.90
63960;DHT22;50136;51.374;0.096;2023-03-05T02:11:20;5.90;99.90
63960;DHT22;50136;51.374;0.096;2023-03-05T02:21:36;5.80;99.90
63960;DHT22;50136;51.374;0.096;2023-03-05T02:31:39;5.80;99.90
63960;DHT22;50136;51.374;0.096;2023-03-05T02:41:42;5.80;99.90
63960;DHT22;50136;51.374;0.096;2023-03-05T02:51:44;5.80;99.90
63960;DHT22;50136;51.374;0.096;2023-03-05T03:01:48;5.70;99.90
63960;DHT22;50136;51.374;0.096;2023-03-05T03:11:50;5.80;99.90
63960;DHT22;50136;51.374;0.096;2023-03-05T03:21:53;5.80;99.90
63960;DHT22;50136;51.374;0.096;2023-03-05T03:31:55;5.80;99.90
63960;DHT22;50136;51.374;0.096;2023-03-05T03:42:00;5.60;99.90
63960;DHT22;50136;51.374;0.096;2023-03-05T03:52:02;5.60;99.90
63960;DHT22;50136;51.374;0.096;2023-03-05T04:02:05;5.60;99.90
63960;DHT22;50136;51.374;0.096;2023-03-05T04:12:08;5.40;99.90
63960;DHT22;50136;51.374;0.096;2023-03-05T04:22:12;5.20;99.90
63960;DHT22;50136;51.374;0.096;2023-03-05T04:32:14;5.20;99.90
63960;DHT22;50136;51.374;0.096;2023-03-05T04:42:18;5.10;99.90
63960;DHT22;50136;51.374;0.096;2023-03-05T04:52:20;5.10;99.90
63960;DHT22;50136;51.374;0.096;2023-03-05T05:02:23;5.10;99.90
63960;DHT22;50136;51.374;0.096;2023-03-05T05:12:27;5.00;99.90
63960;DHT22;50136;51.374;0.096;2023-03-05T05:22:31;5.00;99.90
63960;DHT22;50136;51.374;0.096;2023-03-05T05:32:33;5.10;99.90
63960;DHT22;50136;51.374;0.096;2023-03-05T05:42:36;5.00;99.90
63960;DHT22;50136;51.374;0.096;2023-03-05T05:52:38;5.00;99.90
63960;DHT22;50136;51.374;0.096;2023-03-05T06:02:42;5.00;99.90
63960;DHT22;50136;51.374;0.096;2023-03-05T06:12:44;4.80;99.90
63960;DHT22;50136;51.374;0.096;2023-03-05T06:22:47;4.80;99.90
63960;DHT22;50136;51.374;0.096;2023-03-05T06:32:49;4.80;99.90
63960;DHT22;50136;51.374;0.096;2023-03-05T06:42:52;4.80;99.90
63960;DHT22;50136;51.374;0.096;2023-03-05T06:52:54;4.70;99.90
63960;DHT22;50136;51.374;0.096;2023-03-05T07:02:58;4.80;99.90
63960;DHT22;50136;51.374;0.096;2023-03-05T07:13:00;4.70;99.90
63960;DHT22;50136;51.374;0.096;2023-03-05T07:23:03;4.80;99.90
63960;DHT22;50136;51.374;0.096;2023-03-05T07:33:05;4.80;99.90
63960;DHT22;50136;51.374;0.096;2023-03-05T07:43:09;4.80;99.90
63960;DHT22;50136;51.374;0.096;2023-03-05T07:53:11;4.70;99.90
63960;DHT22;50136;51.374;0.096;2023-03-05T08:03:25;4.80;99.90
63960;DHT22;50136;51.374;0.096;2023-03-05T08:13:31;4.80;99.90
63960;DHT22;50136;51.374;0.096;2023-03-05T08:23:35;4.90;99.90
63960;DHT22;50136;51.374;0.096;2023-03-05T08:33:37;4.80;99.90
63960;DHT22;50136;51.374;0.096;2023-03-05T08:43:41;4.90;99.90
63960;DHT22;50136;51.374;0.096;2023-03-05T08:53:44;4.90;99.90
63960;DHT22;50136;51.374;0.096;2023-03-05T09:03:47;5.00;99.90
63960;DHT22;50136;51.374;0.096;2023-03-05T09:13:49;4.90;99.90
63960;DHT22;50136;51.374;0.096;2023-03-05T09:23:53;5.20;99.90
63960;DHT22;50136;51.374;0.096;2023-03-05T09:33:55;5.20;99.90
63960;DHT22;50136;51.374;0.096;2023-03-05T09:44:08;5.30;99.90
63960;DHT22;50136;51.374;0.096;2023-03-05T09:54:15;5.40;99.90
63960;DHT22;50136;51.374;0.096;2023-03-05T10:04:22;5.40;99.90
63960;DHT22;50136;51.374;0.096;2023-03-05T10:14:28;5.40;99.90
63960;DHT22;50136;51.374;0.096;2023-03-05T10:24:40;5.70;99.90
63960;DHT22;50136;51.374;0.096;2023-03-05T10:35:00;5.70;99.90
63960;DHT22;50136;51.374;0.096;2023-03-05T10:45:14;5.90;99.90
63960;DHT22;50136;51.374;0.096;2023-03-05T10:55:18;5.80;99.90
63960;DHT22;50136;51.374;0.096;2023-03-05T11:05:39;6.00;99.90
63960;DHT22;50136;51.374;0.096;2023-03-05T11:15:42;6.50;99.90
63960;DHT22;50136;51.374;0.096;2023-03-05T11:25:57;6.50;99.90
63960;DHT22;50136;51.374;0.096;2023-03-05T11:36:12;6.50;99.90
63960;DHT22;50136;51.374;0.096;2023-03-05T11:46:24;6.60;99.90
63960;DHT22;50136;51.374;0.096;2023-03-05T11:56:29;6.70;99.90
63960;DHT22;50136;51.374;0.096;2023-03-05T12:06:35;6.70;99.90
63960;DHT22;50136;51.374;0.096;2023-03-05T12:16:41;6.80;99.90
63960;DHT22;50136;51.374;0.096;2023-03-05T12:38:19;6.20;99.90
63960;DHT22;50136;51.374;0.096;2023-03-05T12:58:48;6.10;99.90
63960;DHT22;50136;51.374;0.096;2023-03-05T13:08:56;5.80;99.90
63960;DHT22;50136;51.374;0.096;2023-03-05T13:41:20;5.50;99.90
63960;DHT22;50136;51.374;0.096;2023-03-05T13:51:23;5.70;99.90
63960;DHT22;50136;51.374;0.096;2023-03-05T14:01:28;6.30;99.90
63960;DHT22;50136;51.374;0.096;2023-03-05T14:11:31;6.10;99.90
63960;DHT22;50136;51.374;0.096;2023-03-05T14:32:54;6.10;99.90
63960;DHT22;50136;51.374;0.096;2023-03-05T14:54:05;5.70;99.90
63960;DHT22;50136;51.374;0.096;2023-03-05T15:04:09;5.80;99.90
63960;DHT22;50136;51.374;0.096;2023-03-05T15:14:12;5.70;99.90
63960;DHT22;50136;51.374;0.096;2023-03-05T15:24:16;5.50;99.90
63960;DHT22;50136;51.374;0.096;2023-03-05T15:44:36;5.50;99.90
63960;DHT22;50136;51.374;0.096;2023-03-05T15:54:38;5.30;99.90
63960;DHT22;50136;51.374;0.096;2023-03-05T16:15:50;5.30;99.90
63960;DHT22;50136;51.374;0.096;2023-03-05T16:25:52;5.50;99.90
63960;DHT22;50136;51.374;0.096;2023-03-05T16:36:27;5.60;99.90
63960;DHT22;50136;51.374;0.096;2023-03-05T16:46:32;5.50;99.90
63960;DHT22;50136;51.374;0.096;2023-03-05T17:06:45;5.50;99.90
63960;DHT22;50136;51.374;0.096;2023-03-05T17:16:53;5.30;99.90
63960;DHT22;50136;51.374;0.096;2023-03-05T17:26:57;5.30;99.90
63960;DHT22;50136;51.374;0.096;2023-03-05T17:37:01;5.30;99.90
63960;DHT22;50136;51.374;0.096;2023-03-05T17:47:05;5.40;99.90
63960;DHT22;50136;51.374;0.096;2023-03-05T17:57:07;5.30;99.90
63960;DHT22;50136;51.374;0.096;2023-03-05T18:07:11;5.20;99.90
63960;DHT22;50136;51.374;0.096;2023-03-05T18:17:13;5.30;99.90
63960;DHT22;50136;51.374;0.096;2023-03-05T18:27:16;5.30;99.90
63960;DHT22;50136;51.374;0.096;2023-03-05T18:37:18;5.40;99.90
63960;DHT22;50136;51.374;0.096;2023-03-05T18:47:21;5.50;99.90
63960;DHT22;50136;51.374;0.096;2023-03-05T18:57:25;5.50;99.90
63960;DHT22;50136;51.374;0.096;2023-03-05T19:07:28;5.50;99.90
63960;DHT22;50136;51.374;0.096;2023-03-05T19:17:32;5.40;99.90
63960;DHT22;50136;51.374;0.096;2023-03-05T19:27:36;5.40;99.90
63960;DHT22;50136;51.374;0.096;2023-03-05T19:37:38;5.40;99.90
63960;DHT22;50136;51.374;0.096;2023-03-05T19:47:41;5.30;99.90
63960;DHT22;50136;51.374;0.096;2023-03-05T19:57:43;5.20;99.90
63960;DHT22;50136;51.374;0.096;2023-03-05T20:07:47;5.30;99.90
63960;DHT22;50136;51.374;0.096;2023-03-05T20:17:51;5.20;99.90
63960;DHT22;50136;51.374;0.096;2023-03-05T20:27:54;5.30;99.90
63960;DHT22;50136;51.374;0.096;2023-03-05T20:37:56;5.10;99.90
63960;DHT22;50136;51.374;0.096;2023-03-05T20:48:00;5.20;99.90
63960;DHT22;50136;51.374;0.096;2023-03-05T20:58:02;5.20;99.90
63960;DHT22;50136;51.374;0.096;2023-03-05T21:08:05;5.20;99.90
63960;DHT22;50136;51.374;0.096;2023-03-05T21:18:07;5.20;99.90
63960;DHT22;50136;51.374;0.096;2023-03-05T21:28:12;5.20;99.90
63960;DHT22;50136;51.374;0.096;2023-03-05T21:38:14;5.30;99.90
63960;DHT22;50136;51.374;0.096;2023-03-05T21:48:18;5.20;99.90
63960;DHT22;50136;51.374;0.096;2023-03-05T21:58:20;5.20;99.90
63960;DHT22;50136;51.374;0.096;2023-03-05T22:08:24;5.20;99.90
63960;DHT22;50136;51.374;0.096;2023-03-05T22:18:27;5.10;99.90
63960;DHT22;50136;51.374;0.096;2023-03-05T22:28:31;5.10;99.90
63960;DHT22;50136;51.374;0.096;2023-03-05T22:38:34;5.00;99.90
63960;DHT22;50136;51.374;0.096;2023-03-05T22:48:37;5.10;99.90
63960;DHT22;50136;51.374;0.096;2023-03-05T22:58:40;5.10;99.90
63960;DHT22;50136;51.374;0.096;2023-03-05T23:08:43;5.10;99.90
63960;DHT22;50136;51.374;0.096;2023-03-05T23:18:45;5.10;99.90
63960;DHT22;50136;51.374;0.096;2023-03-05T23:28:48;5.10;99.90
63960;DHT22;50136;51.374;0.096;2023-03-05T23:38:50;5.10;99.90
63960;DHT22;50136;51.374;0.096;2023-03-05T23:48:54;5.00;99.90
63960;DHT22;50136;51.374;0.096;2023-03-05T23:58:56;5.10;99.90
